sensor_id;sensor_type;location;lat;lon;timestamp;P1;durP1;ratioP1;P2;durP2;ratioP2
55647;SDS011;45266;48.756;9.246;2023-02-19T00:00:08;4.07;;;2.88;;
55647;SDS011;45266;48.756;9.246;2023-02-19T00:01:15;3.97;;;3.10;;
55647;SDS011;45266;48.756;9.246;2023-02-19T00:02:17;3.63;;;3.33;;
55647;SDS011;45266;48.756;9.246;2023-02-19T00:03:19;3.60;;;3.30;;
55647;SDS011;45266;48.756;9.246;2023-02-19T00:04:21;4.30;;;3.30;;
55647;SDS011;45266;48.756;9.246;2023-02-19T00:05:23;3.40;;;3.10;;
55647;SDS011;45266;48.756;9.246;2023-02-19T00:06:26;4.43;;;3.40;;
55647;SDS011;45266;48.756;9.246;2023-02-19T00:07:30;3.53;;;3.22;;
55647;SDS011;45266;48.756;9.246;2023-02-19T00:08:32;5.05;;;3.13;;
55647;SDS011;45266;48.756;9.246;2023-02-19T00:09:34;3.80;;;3.40;;
55647;SDS011;45266;48.756;9.246;2023-02-19T00:10:36;3.20;;;2.83;;
55647;SDS011;45266;48.756;9.246;2023-02-19T00:11:38;3.67;;;3.10;;
55647;SDS011;45266;48.756;9.246;2023-02-19T00:12:39;3.45;;;3.15;;
55647;SDS011;45266;48.756;9.246;2023-02-19T00:13:42;3.50;;;3.20;;
55647;SDS011;45266;48.756;9.246;2023-02-19T00:14:46;4.15;;;3.00;;
55647;SDS011;45266;48.756;9.246;2023-02-19T00:15:47;3.47;;;3.10;;
55647;SDS011;45266;48.756;9.246;2023-02-19T00:16:49;3.83;;;3.30;;
55647;SDS011;45266;48.756;9.246;2023-02-19T00:17:51;4.05;;;3.42;;
55647;SDS011;45266;48.756;9.246;2023-02-19T00:18:53;3.30;;;3.00;;
55647;SDS011;45266;48.756;9.246;2023-02-19T00:19:56;4.47;;;3.33;;
55647;SDS011;45266;48.756;9.246;2023-02-19T00:20:58;3.90;;;3.35;;
55647;SDS011;45266;48.756;9.246;2023-02-19T00:22:00;4.20;;;3.67;;
55647;SDS011;45266;48.756;9.246;2023-02-19T00:23:01;4.72;;;3.22;;
55647;SDS011;45266;48.756;9.246;2023-02-19T00:24:04;3.97;;;3.58;;
55647;SDS011;45266;48.756;9.246;2023-02-19T00:25:07;4.53;;;3.25;;
55647;SDS011;45266;48.756;9.246;2023-02-19T00:26:10;4.03;;;3.60;;
55647;SDS011;45266;48.756;9.246;2023-02-19T00:27:19;3.50;;;3.20;;
55647;SDS011;45266;48.756;9.246;2023-02-19T00:28:21;4.93;;;3.50;;
55647;SDS011;45266;48.756;9.246;2023-02-19T00:29:23;4.40;;;3.90;;
55647;SDS011;45266;48.756;9.246;2023-02-19T00:30:25;3.63;;;3.20;;
55647;SDS011;45266;48.756;9.246;2023-02-19T00:31:30;3.85;;;3.38;;
55647;SDS011;45266;48.756;9.246;2023-02-19T00:32:33;3.60;;;3.30;;
55647;SDS011;45266;48.756;9.246;2023-02-19T00:33:35;4.50;;;3.53;;
55647;SDS011;45266;48.756;9.246;2023-02-19T00:34:37;4.30;;;3.90;;
55647;SDS011;45266;48.756;9.246;2023-02-19T00:35:39;3.92;;;3.60;;
55647;SDS011;45266;48.756;9.246;2023-02-19T00:36:41;4.00;;;3.65;;
55647;SDS011;45266;48.756;9.246;2023-02-19T00:37:43;4.00;;;3.67;;
55647;SDS011;45266;48.756;9.246;2023-02-19T00:38:46;3.97;;;3.60;;
55647;SDS011;45266;48.756;9.246;2023-02-19T00:39:48;6.05;;;4.13;;
55647;SDS011;45266;48.756;9.246;2023-02-19T00:40:50;4.30;;;3.90;;
55647;SDS011;45266;48.756;9.246;2023-02-19T00:41:51;5.13;;;3.78;;
55647;SDS011;45266;48.756;9.246;2023-02-19T00:42:53;3.80;;;3.40;;
55647;SDS011;45266;48.756;9.246;2023-02-19T00:45:01;3.58;;;3.28;;
55647;SDS011;45266;48.756;9.246;2023-02-19T00:46:03;3.95;;;3.45;;
55647;SDS011;45266;48.756;9.246;2023-02-19T00:47:05;5.70;;;3.75;;
55647;SDS011;45266;48.756;9.246;2023-02-19T00:48:07;4.53;;;3.67;;
55647;SDS011;45266;48.756;9.246;2023-02-19T00:49:10;4.13;;;3.72;;
55647;SDS011;45266;48.756;9.246;2023-02-19T00:50:23;4.63;;;4.03;;
55647;SDS011;45266;48.756;9.246;2023-02-19T00:51:27;4.60;;;4.00;;
55647;SDS011;45266;48.756;9.246;2023-02-19T00:52:30;5.38;;;4.35;;
55647;SDS011;45266;48.756;9.246;2023-02-19T00:53:32;4.25;;;3.75;;
55647;SDS011;45266;48.756;9.246;2023-02-19T00:54:34;6.35;;;4.00;;
55647;SDS011;45266;48.756;9.246;2023-02-19T00:55:35;5.43;;;3.67;;
55647;SDS011;45266;48.756;9.246;2023-02-19T00:56:37;3.00;;;2.40;;
55647;SDS011;45266;48.756;9.246;2023-02-19T00:57:39;3.63;;;2.20;;
55647;SDS011;45266;48.756;9.246;2023-02-19T00:58:41;3.17;;;2.08;;
55647;SDS011;45266;48.756;9.246;2023-02-19T00:59:43;2.93;;;2.17;;
55647;SDS011;45266;48.756;9.246;2023-02-19T01:00:44;2.47;;;2.28;;
55647;SDS011;45266;48.756;9.246;2023-02-19T01:01:46;2.70;;;2.15;;
55647;SDS011;45266;48.756;9.246;2023-02-19T01:02:49;2.30;;;2.10;;
55647;SDS011;45266;48.756;9.246;2023-02-19T01:03:51;2.95;;;1.58;;
55647;SDS011;45266;48.756;9.246;2023-02-19T01:04:53;2.20;;;2.00;;
55647;SDS011;45266;48.756;9.246;2023-02-19T01:05:55;2.97;;;1.77;;
55647;SDS011;45266;48.756;9.246;2023-02-19T01:06:56;2.08;;;1.77;;
55647;SDS011;45266;48.756;9.246;2023-02-19T01:07:58;2.90;;;1.90;;
55647;SDS011;45266;48.756;9.246;2023-02-19T01:09:00;2.38;;;2.10;;
55647;SDS011;45266;48.756;9.246;2023-02-19T01:10:02;1.90;;;1.80;;
55647;SDS011;45266;48.756;9.246;2023-02-19T01:11:05;1.90;;;1.70;;
55647;SDS011;45266;48.756;9.246;2023-02-19T01:12:09;2.67;;;1.50;;
55647;SDS011;45266;48.756;9.246;2023-02-19T01:13:11;1.88;;;1.67;;
55647;SDS011;45266;48.756;9.246;2023-02-19T01:14:13;1.88;;;1.75;;
55647;SDS011;45266;48.756;9.246;2023-02-19T01:15:14;2.25;;;1.45;;
55647;SDS011;45266;48.756;9.246;2023-02-19T01:16:17;1.85;;;1.40;;
55647;SDS011;45266;48.756;9.246;2023-02-19T01:17:21;1.83;;;1.70;;
55647;SDS011;45266;48.756;9.246;2023-02-19T01:18:23;1.60;;;1.50;;
55647;SDS011;45266;48.756;9.246;2023-02-19T01:19:24;2.53;;;1.60;;
55647;SDS011;45266;48.756;9.246;2023-02-19T01:20:26;2.75;;;1.30;;
55647;SDS011;45266;48.756;9.246;2023-02-19T01:21:29;2.75;;;1.63;;
55647;SDS011;45266;48.756;9.246;2023-02-19T01:22:31;1.80;;;1.27;;
55647;SDS011;45266;48.756;9.246;2023-02-19T01:23:33;1.65;;;1.42;;
55647;SDS011;45266;48.756;9.246;2023-02-19T01:24:35;1.70;;;1.58;;
55647;SDS011;45266;48.756;9.246;2023-02-19T01:25:40;1.50;;;1.40;;
55647;SDS011;45266;48.756;9.246;2023-02-19T01:26:42;1.50;;;1.40;;
55647;SDS011;45266;48.756;9.246;2023-02-19T01:27:44;1.73;;;1.38;;
55647;SDS011;45266;48.756;9.246;2023-02-19T01:28:46;1.90;;;1.48;;
55647;SDS011;45266;48.756;9.246;2023-02-19T01:29:48;1.50;;;1.30;;
55647;SDS011;45266;48.756;9.246;2023-02-19T01:30:50;1.52;;;1.30;;
55647;SDS011;45266;48.756;9.246;2023-02-19T01:31:51;1.50;;;1.40;;
55647;SDS011;45266;48.756;9.246;2023-02-19T01:32:53;2.28;;;1.75;;
55647;SDS011;45266;48.756;9.246;2023-02-19T01:33:57;1.77;;;1.33;;
55647;SDS011;45266;48.756;9.246;2023-02-19T01:35:00;2.33;;;1.48;;
55647;SDS011;45266;48.756;9.246;2023-02-19T01:36:03;1.25;;;1.15;;
55647;SDS011;45266;48.756;9.246;2023-02-19T01:37:06;2.63;;;1.38;;
55647;SDS011;45266;48.756;9.246;2023-02-19T01:38:12;3.38;;;1.20;;
55647;SDS011;45266;48.756;9.246;2023-02-19T01:39:14;2.20;;;1.48;;
55647;SDS011;45266;48.756;9.246;2023-02-19T01:40:15;1.65;;;1.23;;
55647;SDS011;45266;48.756;9.246;2023-02-19T01:41:18;1.00;;;1.00;;
55647;SDS011;45266;48.756;9.246;2023-02-19T01:42:22;2.00;;;1.17;;
55647;SDS011;45266;48.756;9.246;2023-02-19T01:43:23;2.63;;;1.23;;
55647;SDS011;45266;48.756;9.246;2023-02-19T01:45:31;2.40;;;1.13;;
55647;SDS011;45266;48.756;9.246;2023-02-19T01:46:39;1.35;;;1.25;;
55647;SDS011;45266;48.756;9.246;2023-02-19T01:47:42;1.38;;;1.27;;
55647;SDS011;45266;48.756;9.246;2023-02-19T01:48:44;1.60;;;1.50;;
55647;SDS011;45266;48.756;9.246;2023-02-19T01:49:51;1.17;;;1.08;;
55647;SDS011;45266;48.756;9.246;2023-02-19T01:50:57;1.30;;;1.20;;
55647;SDS011;45266;48.756;9.246;2023-02-19T01:52:13;1.60;;;1.50;;
55647;SDS011;45266;48.756;9.246;2023-02-19T01:53:22;2.08;;;1.40;;
55647;SDS011;45266;48.756;9.246;2023-02-19T01:54:27;1.30;;;1.20;;
55647;SDS011;45266;48.756;9.246;2023-02-19T01:55:33;1.85;;;1.42;;
55647;SDS011;45266;48.756;9.246;2023-02-19T01:56:36;1.42;;;1.33;;
55647;SDS011;45266;48.756;9.246;2023-02-19T01:57:44;1.50;;;1.17;;
55647;SDS011;45266;48.756;9.246;2023-02-19T01:58:48;1.65;;;1.40;;
55647;SDS011;45266;48.756;9.246;2023-02-19T01:59:51;2.53;;;1.10;;
55647;SDS011;45266;48.756;9.246;2023-02-19T02:00:57;2.13;;;1.60;;
55647;SDS011;45266;48.756;9.246;2023-02-19T02:02:00;1.70;;;1.60;;
55647;SDS011;45266;48.756;9.246;2023-02-19T02:03:02;2.95;;;1.50;;
55647;SDS011;45266;48.756;9.246;2023-02-19T02:04:05;2.22;;;1.10;;
55647;SDS011;45266;48.756;9.246;2023-02-19T02:05:09;2.20;;;1.70;;
55647;SDS011;45266;48.756;9.246;2023-02-19T02:06:21;1.58;;;1.30;;
55647;SDS011;45266;48.756;9.246;2023-02-19T02:07:26;1.30;;;1.20;;
55647;SDS011;45266;48.756;9.246;2023-02-19T02:08:47;1.52;;;1.30;;
55647;SDS011;45266;48.756;9.246;2023-02-19T02:10:10;1.50;;;1.40;;
55647;SDS011;45266;48.756;9.246;2023-02-19T02:11:21;1.50;;;1.30;;
55647;SDS011;45266;48.756;9.246;2023-02-19T02:12:23;2.67;;;1.48;;
55647;SDS011;45266;48.756;9.246;2023-02-19T02:13:25;1.60;;;1.20;;
55647;SDS011;45266;48.756;9.246;2023-02-19T02:14:28;1.58;;;1.30;;
55647;SDS011;45266;48.756;9.246;2023-02-19T02:15:36;3.05;;;1.50;;
55647;SDS011;45266;48.756;9.246;2023-02-19T02:20:54;2.00;;;1.80;;
55647;SDS011;45266;48.756;9.246;2023-02-19T02:22:28;1.63;;;1.52;;
55647;SDS011;45266;48.756;9.246;2023-02-19T02:23:57;1.50;;;1.40;;
55647;SDS011;45266;48.756;9.246;2023-02-19T02:26:40;1.70;;;1.60;;
55647;SDS011;45266;48.756;9.246;2023-02-19T02:31:24;1.83;;;1.48;;
55647;SDS011;45266;48.756;9.246;2023-02-19T02:32:42;1.63;;;1.42;;
55647;SDS011;45266;48.756;9.246;2023-02-19T02:33:58;1.80;;;1.70;;
55647;SDS011;45266;48.756;9.246;2023-02-19T02:35:08;2.05;;;1.73;;
55647;SDS011;45266;48.756;9.246;2023-02-19T02:36:22;1.38;;;1.20;;
55647;SDS011;45266;48.756;9.246;2023-02-19T02:37:31;3.83;;;1.67;;
55647;SDS011;45266;48.756;9.246;2023-02-19T02:38:36;1.48;;;1.38;;
55647;SDS011;45266;48.756;9.246;2023-02-19T02:39:41;1.63;;;1.53;;
55647;SDS011;45266;48.756;9.246;2023-02-19T02:40:45;1.65;;;1.55;;
55647;SDS011;45266;48.756;9.246;2023-02-19T02:41:49;2.83;;;1.65;;
55647;SDS011;45266;48.756;9.246;2023-02-19T02:43:15;2.03;;;1.50;;
55647;SDS011;45266;48.756;9.246;2023-02-19T02:44:16;2.15;;;1.90;;
55647;SDS011;45266;48.756;9.246;2023-02-19T02:46:35;2.20;;;1.55;;
55647;SDS011;45266;48.756;9.246;2023-02-19T02:48:48;3.05;;;1.80;;
55647;SDS011;45266;48.756;9.246;2023-02-19T02:49:54;2.08;;;1.60;;
55647;SDS011;45266;48.756;9.246;2023-02-19T02:51:26;1.65;;;1.55;;
55647;SDS011;45266;48.756;9.246;2023-02-19T02:52:32;1.50;;;1.40;;
55647;SDS011;45266;48.756;9.246;2023-02-19T02:55:22;1.52;;;1.42;;
55647;SDS011;45266;48.756;9.246;2023-02-19T02:56:25;2.70;;;1.40;;
55647;SDS011;45266;48.756;9.246;2023-02-19T02:57:28;2.97;;;1.50;;
55647;SDS011;45266;48.756;9.246;2023-02-19T02:58:30;3.20;;;1.58;;
55647;SDS011;45266;48.756;9.246;2023-02-19T02:59:36;1.70;;;1.42;;
55647;SDS011;45266;48.756;9.246;2023-02-19T03:00:41;1.88;;;1.65;;
55647;SDS011;45266;48.756;9.246;2023-02-19T03:03:19;1.45;;;1.35;;
55647;SDS011;45266;48.756;9.246;2023-02-19T03:04:31;1.67;;;1.58;;
55647;SDS011;45266;48.756;9.246;2023-02-19T03:06:00;1.77;;;1.40;;
55647;SDS011;45266;48.756;9.246;2023-02-19T03:07:06;2.33;;;1.27;;
55647;SDS011;45266;48.756;9.246;2023-02-19T03:09:29;3.60;;;1.50;;
55647;SDS011;45266;48.756;9.246;2023-02-19T03:10:44;2.13;;;1.77;;
55647;SDS011;45266;48.756;9.246;2023-02-19T03:12:20;2.47;;;1.48;;
55647;SDS011;45266;48.756;9.246;2023-02-19T03:13:42;1.90;;;1.30;;
55647;SDS011;45266;48.756;9.246;2023-02-19T03:15:05;1.23;;;1.10;;
55647;SDS011;45266;48.756;9.246;2023-02-19T03:16:31;1.85;;;1.33;;
55647;SDS011;45266;48.756;9.246;2023-02-19T03:17:56;1.40;;;1.30;;
55647;SDS011;45266;48.756;9.246;2023-02-19T03:19:19;1.17;;;1.08;;
55647;SDS011;45266;48.756;9.246;2023-02-19T03:20:25;1.73;;;1.63;;
55647;SDS011;45266;48.756;9.246;2023-02-19T03:21:27;3.13;;;1.30;;
55647;SDS011;45266;48.756;9.246;2023-02-19T03:22:30;3.13;;;1.55;;
55647;SDS011;45266;48.756;9.246;2023-02-19T03:23:36;1.60;;;1.50;;
55647;SDS011;45266;48.756;9.246;2023-02-19T03:24:59;1.52;;;1.42;;
55647;SDS011;45266;48.756;9.246;2023-02-19T03:26:24;1.40;;;1.30;;
55647;SDS011;45266;48.756;9.246;2023-02-19T03:27:27;2.00;;;1.50;;
55647;SDS011;45266;48.756;9.246;2023-02-19T03:28:33;1.52;;;1.42;;
55647;SDS011;45266;48.756;9.246;2023-02-19T03:29:57;2.20;;;1.40;;
55647;SDS011;45266;48.756;9.246;2023-02-19T03:31:02;1.67;;;1.48;;
55647;SDS011;45266;48.756;9.246;2023-02-19T03:32:12;1.75;;;1.65;;
55647;SDS011;45266;48.756;9.246;2023-02-19T03:33:19;1.57;;;1.47;;
55647;SDS011;45266;48.756;9.246;2023-02-19T03:34:26;1.65;;;1.55;;
55647;SDS011;45266;48.756;9.246;2023-02-19T03:35:31;1.83;;;1.63;;
55647;SDS011;45266;48.756;9.246;2023-02-19T03:36:45;2.05;;;1.50;;
55647;SDS011;45266;48.756;9.246;2023-02-19T03:39:19;2.17;;;1.45;;
55647;SDS011;45266;48.756;9.246;2023-02-19T03:40:24;1.58;;;1.48;;
55647;SDS011;45266;48.756;9.246;2023-02-19T03:43:59;2.67;;;1.73;;
55647;SDS011;45266;48.756;9.246;2023-02-19T03:45:23;1.63;;;1.53;;
55647;SDS011;45266;48.756;9.246;2023-02-19T03:46:41;1.50;;;1.38;;
55647;SDS011;45266;48.756;9.246;2023-02-19T03:55:15;1.58;;;1.48;;
55647;SDS011;45266;48.756;9.246;2023-02-19T03:56:32;1.65;;;1.45;;
55647;SDS011;45266;48.756;9.246;2023-02-19T03:57:49;2.20;;;1.60;;
55647;SDS011;45266;48.756;9.246;2023-02-19T03:59:01;2.72;;;1.80;;
55647;SDS011;45266;48.756;9.246;2023-02-19T04:01:29;2.67;;;1.73;;
55647;SDS011;45266;48.756;9.246;2023-02-19T04:04:21;2.10;;;1.70;;
55647;SDS011;45266;48.756;9.246;2023-02-19T04:05:34;2.70;;;1.40;;
55647;SDS011;45266;48.756;9.246;2023-02-19T04:06:40;2.20;;;1.40;;
55647;SDS011;45266;48.756;9.246;2023-02-19T04:07:45;1.90;;;1.48;;
55647;SDS011;45266;48.756;9.246;2023-02-19T04:08:51;1.67;;;1.58;;
55647;SDS011;45266;48.756;9.246;2023-02-19T04:09:56;2.60;;;1.60;;
55647;SDS011;45266;48.756;9.246;2023-02-19T04:10:58;2.80;;;1.52;;
55647;SDS011;45266;48.756;9.246;2023-02-19T04:12:00;1.77;;;1.60;;
55647;SDS011;45266;48.756;9.246;2023-02-19T04:13:05;1.50;;;1.40;;
55647;SDS011;45266;48.756;9.246;2023-02-19T04:14:13;2.10;;;1.45;;
55647;SDS011;45266;48.756;9.246;2023-02-19T04:15:20;3.47;;;1.63;;
55647;SDS011;45266;48.756;9.246;2023-02-19T04:16:26;1.70;;;1.60;;
55647;SDS011;45266;48.756;9.246;2023-02-19T04:17:31;1.80;;;1.50;;
55647;SDS011;45266;48.756;9.246;2023-02-19T04:18:37;2.33;;;1.52;;
55647;SDS011;45266;48.756;9.246;2023-02-19T04:19:42;2.20;;;1.40;;
55647;SDS011;45266;48.756;9.246;2023-02-19T04:20:48;1.47;;;1.10;;
55647;SDS011;45266;48.756;9.246;2023-02-19T04:21:51;2.17;;;1.40;;
55647;SDS011;45266;48.756;9.246;2023-02-19T04:22:55;2.65;;;1.50;;
55647;SDS011;45266;48.756;9.246;2023-02-19T04:23:58;1.58;;;1.35;;
55647;SDS011;45266;48.756;9.246;2023-02-19T04:25:03;1.45;;;1.10;;
55647;SDS011;45266;48.756;9.246;2023-02-19T04:26:05;1.25;;;1.15;;
55647;SDS011;45266;48.756;9.246;2023-02-19T04:27:08;1.52;;;1.42;;
55647;SDS011;45266;48.756;9.246;2023-02-19T04:28:12;1.50;;;1.30;;
55647;SDS011;45266;48.756;9.246;2023-02-19T04:29:16;1.65;;;1.40;;
55647;SDS011;45266;48.756;9.246;2023-02-19T04:30:18;1.35;;;1.10;;
55647;SDS011;45266;48.756;9.246;2023-02-19T04:31:21;1.27;;;1.17;;
55647;SDS011;45266;48.756;9.246;2023-02-19T04:32:24;1.65;;;1.48;;
55647;SDS011;45266;48.756;9.246;2023-02-19T04:33:25;2.90;;;1.10;;
55647;SDS011;45266;48.756;9.246;2023-02-19T04:34:27;1.27;;;1.10;;
55647;SDS011;45266;48.756;9.246;2023-02-19T04:35:29;1.85;;;1.15;;
55647;SDS011;45266;48.756;9.246;2023-02-19T04:36:31;1.90;;;0.95;;
55647;SDS011;45266;48.756;9.246;2023-02-19T04:37:33;1.02;;;1.00;;
55647;SDS011;45266;48.756;9.246;2023-02-19T04:38:35;1.83;;;1.13;;
55647;SDS011;45266;48.756;9.246;2023-02-19T04:39:39;1.17;;;1.00;;
55647;SDS011;45266;48.756;9.246;2023-02-19T04:40:40;1.48;;;1.00;;
55647;SDS011;45266;48.756;9.246;2023-02-19T04:41:42;2.92;;;1.10;;
55647;SDS011;45266;48.756;9.246;2023-02-19T04:42:44;1.20;;;1.00;;
55647;SDS011;45266;48.756;9.246;2023-02-19T04:43:46;0.90;;;0.90;;
55647;SDS011;45266;48.756;9.246;2023-02-19T04:44:47;4.28;;;1.10;;
55647;SDS011;45266;48.756;9.246;2023-02-19T04:45:49;2.55;;;1.15;;
55647;SDS011;45266;48.756;9.246;2023-02-19T04:46:51;2.47;;;1.00;;
55647;SDS011;45266;48.756;9.246;2023-02-19T04:47:53;1.55;;;1.08;;
55647;SDS011;45266;48.756;9.246;2023-02-19T04:48:54;0.82;;;0.82;;
55647;SDS011;45266;48.756;9.246;2023-02-19T04:49:56;1.00;;;1.00;;
55647;SDS011;45266;48.756;9.246;2023-02-19T04:50:58;1.38;;;1.00;;
55647;SDS011;45266;48.756;9.246;2023-02-19T04:52:00;1.65;;;0.90;;
55647;SDS011;45266;48.756;9.246;2023-02-19T04:53:01;1.02;;;0.90;;
55647;SDS011;45266;48.756;9.246;2023-02-19T04:54:03;1.35;;;1.00;;
55647;SDS011;45266;48.756;9.246;2023-02-19T04:55:05;0.83;;;0.80;;
55647;SDS011;45266;48.756;9.246;2023-02-19T04:56:09;1.43;;;0.80;;
55647;SDS011;45266;48.756;9.246;2023-02-19T04:57:13;1.63;;;1.17;;
55647;SDS011;45266;48.756;9.246;2023-02-19T04:58:15;1.42;;;0.88;;
55647;SDS011;45266;48.756;9.246;2023-02-19T04:59:17;1.00;;;0.90;;
55647;SDS011;45266;48.756;9.246;2023-02-19T05:00:18;0.95;;;0.80;;
55647;SDS011;45266;48.756;9.246;2023-02-19T05:01:20;3.95;;;1.13;;
55647;SDS011;45266;48.756;9.246;2023-02-19T05:02:22;3.00;;;0.77;;
55647;SDS011;45266;48.756;9.246;2023-02-19T05:03:24;1.07;;;0.80;;
55647;SDS011;45266;48.756;9.246;2023-02-19T05:04:25;1.25;;;0.75;;
55647;SDS011;45266;48.756;9.246;2023-02-19T05:05:27;1.33;;;0.90;;
55647;SDS011;45266;48.756;9.246;2023-02-19T05:06:29;2.17;;;0.95;;
55647;SDS011;45266;48.756;9.246;2023-02-19T05:07:31;1.55;;;1.45;;
55647;SDS011;45266;48.756;9.246;2023-02-19T05:08:33;0.70;;;0.70;;
55647;SDS011;45266;48.756;9.246;2023-02-19T05:09:36;1.17;;;0.80;;
55647;SDS011;45266;48.756;9.246;2023-02-19T05:10:37;1.58;;;0.90;;
55647;SDS011;45266;48.756;9.246;2023-02-19T05:11:39;1.10;;;0.87;;
55647;SDS011;45266;48.756;9.246;2023-02-19T05:12:41;2.42;;;1.00;;
55647;SDS011;45266;48.756;9.246;2023-02-19T05:13:43;1.00;;;0.90;;
55647;SDS011;45266;48.756;9.246;2023-02-19T05:14:44;1.90;;;0.80;;
55647;SDS011;45266;48.756;9.246;2023-02-19T05:15:53;0.82;;;0.80;;
55647;SDS011;45266;48.756;9.246;2023-02-19T05:16:56;0.60;;;0.60;;
55647;SDS011;45266;48.756;9.246;2023-02-19T05:17:58;0.60;;;0.60;;
55647;SDS011;45266;48.756;9.246;2023-02-19T05:19:00;0.57;;;0.57;;
55647;SDS011;45266;48.756;9.246;2023-02-19T05:20:01;1.67;;;0.60;;
55647;SDS011;45266;48.756;9.246;2023-02-19T05:21:04;0.85;;;0.70;;
55647;SDS011;45266;48.756;9.246;2023-02-19T05:22:06;0.60;;;0.60;;
55647;SDS011;45266;48.756;9.246;2023-02-19T05:23:08;0.68;;;0.63;;
55647;SDS011;45266;48.756;9.246;2023-02-19T05:24:09;0.70;;;0.70;;
55647;SDS011;45266;48.756;9.246;2023-02-19T05:25:11;0.73;;;0.70;;
55647;SDS011;45266;48.756;9.246;2023-02-19T05:26:14;1.02;;;0.70;;
55647;SDS011;45266;48.756;9.246;2023-02-19T05:27:18;2.25;;;0.70;;
55647;SDS011;45266;48.756;9.246;2023-02-19T05:28:19;2.88;;;0.60;;
55647;SDS011;45266;48.756;9.246;2023-02-19T05:29:29;0.68;;;0.47;;
55647;SDS011;45266;48.756;9.246;2023-02-19T05:30:31;1.33;;;0.70;;
55647;SDS011;45266;48.756;9.246;2023-02-19T05:31:33;0.80;;;0.80;;
55647;SDS011;45266;48.756;9.246;2023-02-19T05:32:35;1.63;;;0.70;;
55647;SDS011;45266;48.756;9.246;2023-02-19T05:33:37;0.43;;;0.43;;
55647;SDS011;45266;48.756;9.246;2023-02-19T05:34:39;1.05;;;0.50;;
55647;SDS011;45266;48.756;9.246;2023-02-19T05:35:45;1.80;;;0.60;;
55647;SDS011;45266;48.756;9.246;2023-02-19T05:36:49;0.73;;;0.60;;
55647;SDS011;45266;48.756;9.246;2023-02-19T05:37:51;0.60;;;0.52;;
55647;SDS011;45266;48.756;9.246;2023-02-19T05:38:53;0.40;;;0.40;;
55647;SDS011;45266;48.756;9.246;2023-02-19T05:39:56;1.03;;;0.60;;
55647;SDS011;45266;48.756;9.246;2023-02-19T05:41:08;0.50;;;0.50;;
55647;SDS011;45266;48.756;9.246;2023-02-19T05:42:12;0.77;;;0.70;;
55647;SDS011;45266;48.756;9.246;2023-02-19T05:43:15;0.47;;;0.43;;
55647;SDS011;45266;48.756;9.246;2023-02-19T05:44:17;0.40;;;0.40;;
55647;SDS011;45266;48.756;9.246;2023-02-19T05:45:19;0.70;;;0.70;;
55647;SDS011;45266;48.756;9.246;2023-02-19T05:46:22;0.80;;;0.40;;
55647;SDS011;45266;48.756;9.246;2023-02-19T05:47:28;0.30;;;0.30;;
55647;SDS011;45266;48.756;9.246;2023-02-19T05:48:30;0.57;;;0.53;;
55647;SDS011;45266;48.756;9.246;2023-02-19T05:49:32;0.50;;;0.50;;
55647;SDS011;45266;48.756;9.246;2023-02-19T05:50:34;0.70;;;0.50;;
55647;SDS011;45266;48.756;9.246;2023-02-19T05:51:39;0.30;;;0.30;;
55647;SDS011;45266;48.756;9.246;2023-02-19T05:52:41;0.30;;;0.30;;
55647;SDS011;45266;48.756;9.246;2023-02-19T05:53:44;0.40;;;0.40;;
55647;SDS011;45266;48.756;9.246;2023-02-19T05:54:46;0.40;;;0.30;;
55647;SDS011;45266;48.756;9.246;2023-02-19T05:55:48;0.40;;;0.40;;
55647;SDS011;45266;48.756;9.246;2023-02-19T05:56:50;0.30;;;0.30;;
55647;SDS011;45266;48.756;9.246;2023-02-19T05:57:51;0.20;;;0.20;;
55647;SDS011;45266;48.756;9.246;2023-02-19T05:58:53;2.08;;;0.40;;
55647;SDS011;45266;48.756;9.246;2023-02-19T05:59:55;0.30;;;0.30;;
55647;SDS011;45266;48.756;9.246;2023-02-19T06:00:57;0.20;;;0.20;;
55647;SDS011;45266;48.756;9.246;2023-02-19T06:01:59;1.00;;;0.30;;
55647;SDS011;45266;48.756;9.246;2023-02-19T06:03:01;0.40;;;0.30;;
55647;SDS011;45266;48.756;9.246;2023-02-19T06:04:03;0.30;;;0.30;;
55647;SDS011;45266;48.756;9.246;2023-02-19T06:05:05;0.20;;;0.20;;
55647;SDS011;45266;48.756;9.246;2023-02-19T06:06:08;0.30;;;0.30;;
55647;SDS011;45266;48.756;9.246;2023-02-19T06:07:13;0.20;;;0.20;;
55647;SDS011;45266;48.756;9.246;2023-02-19T06:08:15;0.22;;;0.22;;
55647;SDS011;45266;48.756;9.246;2023-02-19T06:09:16;0.20;;;0.20;;
55647;SDS011;45266;48.756;9.246;2023-02-19T06:10:18;0.27;;;0.27;;
55647;SDS011;45266;48.756;9.246;2023-02-19T06:11:20;0.40;;;0.40;;
55647;SDS011;45266;48.756;9.246;2023-02-19T06:12:22;0.22;;;0.22;;
55647;SDS011;45266;48.756;9.246;2023-02-19T06:13:24;0.27;;;0.27;;
55647;SDS011;45266;48.756;9.246;2023-02-19T06:14:26;0.25;;;0.25;;
55647;SDS011;45266;48.756;9.246;2023-02-19T06:15:27;0.83;;;0.20;;
55647;SDS011;45266;48.756;9.246;2023-02-19T06:16:29;0.20;;;0.20;;
55647;SDS011;45266;48.756;9.246;2023-02-19T06:17:33;0.28;;;0.28;;
55647;SDS011;45266;48.756;9.246;2023-02-19T06:18:35;0.20;;;0.20;;
55647;SDS011;45266;48.756;9.246;2023-02-19T06:19:37;0.20;;;0.20;;
55647;SDS011;45266;48.756;9.246;2023-02-19T06:20:39;0.30;;;0.30;;
55647;SDS011;45266;48.756;9.246;2023-02-19T06:21:41;0.22;;;0.22;;
55647;SDS011;45266;48.756;9.246;2023-02-19T06:22:42;0.32;;;0.22;;
55647;SDS011;45266;48.756;9.246;2023-02-19T06:23:44;0.30;;;0.30;;
55647;SDS011;45266;48.756;9.246;2023-02-19T06:24:47;0.27;;;0.27;;
55647;SDS011;45266;48.756;9.246;2023-02-19T06:25:48;1.20;;;1.10;;
55647;SDS011;45266;48.756;9.246;2023-02-19T06:26:50;0.33;;;0.33;;
55647;SDS011;45266;48.756;9.246;2023-02-19T06:27:52;0.50;;;0.50;;
55647;SDS011;45266;48.756;9.246;2023-02-19T06:28:53;0.38;;;0.38;;
55647;SDS011;45266;48.756;9.246;2023-02-19T06:29:55;0.30;;;0.30;;
55647;SDS011;45266;48.756;9.246;2023-02-19T06:30:57;0.50;;;0.50;;
55647;SDS011;45266;48.756;9.246;2023-02-19T06:31:59;0.50;;;0.40;;
55647;SDS011;45266;48.756;9.246;2023-02-19T06:33:01;0.30;;;0.30;;
55647;SDS011;45266;48.756;9.246;2023-02-19T06:34:03;1.47;;;0.33;;
55647;SDS011;45266;48.756;9.246;2023-02-19T06:35:05;0.20;;;0.20;;
55647;SDS011;45266;48.756;9.246;2023-02-19T06:36:12;0.40;;;0.40;;
55647;SDS011;45266;48.756;9.246;2023-02-19T06:37:17;0.40;;;0.30;;
55647;SDS011;45266;48.756;9.246;2023-02-19T06:38:21;0.30;;;0.30;;
55647;SDS011;45266;48.756;9.246;2023-02-19T06:39:25;0.33;;;0.33;;
55647;SDS011;45266;48.756;9.246;2023-02-19T06:40:27;0.45;;;0.40;;
55647;SDS011;45266;48.756;9.246;2023-02-19T06:41:29;0.30;;;0.30;;
55647;SDS011;45266;48.756;9.246;2023-02-19T06:42:31;0.22;;;0.22;;
55647;SDS011;45266;48.756;9.246;2023-02-19T06:43:33;0.60;;;0.30;;
55647;SDS011;45266;48.756;9.246;2023-02-19T06:44:35;0.30;;;0.30;;
55647;SDS011;45266;48.756;9.246;2023-02-19T06:45:37;0.73;;;0.40;;
55647;SDS011;45266;48.756;9.246;2023-02-19T06:46:39;0.33;;;0.33;;
55647;SDS011;45266;48.756;9.246;2023-02-19T06:47:41;0.67;;;0.50;;
55647;SDS011;45266;48.756;9.246;2023-02-19T06:48:43;0.50;;;0.50;;
55647;SDS011;45266;48.756;9.246;2023-02-19T06:49:45;0.67;;;0.53;;
55647;SDS011;45266;48.756;9.246;2023-02-19T06:50:47;0.40;;;0.40;;
55647;SDS011;45266;48.756;9.246;2023-02-19T06:51:49;0.30;;;0.30;;
55647;SDS011;45266;48.756;9.246;2023-02-19T06:52:50;0.50;;;0.30;;
55647;SDS011;45266;48.756;9.246;2023-02-19T06:53:52;1.03;;;0.30;;
55647;SDS011;45266;48.756;9.246;2023-02-19T06:54:54;0.30;;;0.30;;
55647;SDS011;45266;48.756;9.246;2023-02-19T06:56:03;0.23;;;0.23;;
55647;SDS011;45266;48.756;9.246;2023-02-19T06:57:22;0.30;;;0.30;;
55647;SDS011;45266;48.756;9.246;2023-02-19T06:58:24;0.35;;;0.35;;
55647;SDS011;45266;48.756;9.246;2023-02-19T06:59:26;0.32;;;0.30;;
55647;SDS011;45266;48.756;9.246;2023-02-19T07:00:27;0.53;;;0.40;;
55647;SDS011;45266;48.756;9.246;2023-02-19T07:01:30;0.50;;;0.50;;
55647;SDS011;45266;48.756;9.246;2023-02-19T07:02:33;0.40;;;0.40;;